createdAt,value
2022-08-05T00:00:56.097Z,24.18
2022-08-05T00:03:51.977Z,24.20
2022-08-05T00:06:32.118Z,24.17
2022-08-05T00:09:00.925Z,24.15
2022-08-05T00:11:30.679Z,24.03
2022-08-05T00:14:11.990Z,24.00
2022-08-05T00:16:52.398Z,23.95
2022-08-05T00:19:45.651Z,23.81
2022-08-05T00:22:26.601Z,23.70
2022-08-05T00:25:12.783Z,23.67
2022-08-05T00:27:42.782Z,23.67
2022-08-05T00:30:29.205Z,23.65
2022-08-05T00:33:04.765Z,23.59
2022-08-05T00:35:33.439Z,23.56
2022-08-05T00:38:01.178Z,23.45
2022-08-05T00:40:53.235Z,23.49
2022-08-05T00:43:21.115Z,23.53
2022-08-05T00:46:06.522Z,23.41
2022-08-05T00:48:34.249Z,23.37
2022-08-05T00:51:52.029Z,23.36
2022-08-05T00:54:28.168Z,23.49
2022-08-05T00:57:15.904Z,23.40
2022-08-05T00:59:48.731Z,23.42
2022-08-05T01:02:16.652Z,23.39
2022-08-05T01:04:44.005Z,23.27
2022-08-05T01:07:13.848Z,23.16
2022-08-05T01:09:41.851Z,23.09
2022-08-05T01:12:17.952Z,23.06
2022-08-05T01:15:18.159Z,23.07
2022-08-05T01:18:05.057Z,23.07
2022-08-05T01:21:25.544Z,23.15
2022-08-05T01:24:47.366Z,23.07
2022-08-05T01:27:32.901Z,22.98
2022-08-05T01:30:03.633Z,22.97
2022-08-05T01:32:51.383Z,22.89
2022-08-05T01:35:51.722Z,22.82
2022-08-05T01:38:34.197Z,22.77
2022-08-05T01:41:04.954Z,22.76
2022-08-05T01:43:52.659Z,22.75
2022-08-05T01:46:42.867Z,22.59
2022-08-05T01:50:00.272Z,22.54
2022-08-05T01:52:19.088Z,22.44
2022-08-05T01:54:52.800Z,22.46
2022-08-05T01:58:11.257Z,22.33
2022-08-05T02:00:21.077Z,22.38
2022-08-05T02:03:04.074Z,22.24
2022-08-05T02:05:35.997Z,22.28
2022-08-05T02:08:05.362Z,22.23
2022-08-05T02:10:59.233Z,22.18
2022-08-05T02:13:53.183Z,22.18
2022-08-05T02:16:52.336Z,22.18
2022-08-05T02:19:28.679Z,22.17
2022-08-05T02:22:25.857Z,22.13
2022-08-05T02:25:02.365Z,22.06
2022-08-05T02:27:59.289Z,22.05
2022-08-05T02:30:34.293Z,22.09
2022-08-05T02:33:02.872Z,22.00
2022-08-05T02:35:38.081Z,21.92
2022-08-05T02:38:35.290Z,21.54
2022-08-05T02:41:14.805Z,21.24
2022-08-05T02:44:05.953Z,21.15
2022-08-05T02:46:43.981Z,21.11
2022-08-05T02:49:40.633Z,21.02
2022-08-05T02:52:25.964Z,20.98
2022-08-05T02:55:11.008Z,20.86
2022-08-05T02:58:12.112Z,20.73
2022-08-05T03:00:55.159Z,20.65
2022-08-05T03:03:25.593Z,20.77
2022-08-05T03:06:56.736Z,20.85
2022-08-05T03:08:59.556Z,20.79
2022-08-05T03:11:57.349Z,20.82
2022-08-05T03:14:29.178Z,20.91
2022-08-05T03:16:59.080Z,20.89
2022-08-05T03:19:36.292Z,20.88
2022-08-05T03:22:04.994Z,20.94
2022-08-05T03:24:47.081Z,21.24
2022-08-05T03:27:19.850Z,21.22
2022-08-05T03:30:07.779Z,21.25
2022-08-05T03:32:37.861Z,21.27
2022-08-05T03:35:23.602Z,21.33
2022-08-05T03:37:50.838Z,21.23
2022-08-05T03:40:40.984Z,21.18
2022-08-05T03:43:59.105Z,21.17
2022-08-05T03:46:03.210Z,21.35
2022-08-05T03:48:35.550Z,21.33
2022-08-05T03:52:37.938Z,21.39
2022-08-05T03:55:50.143Z,21.28
2022-08-05T03:57:16.668Z,21.23
2022-08-05T03:59:55.001Z,21.22
2022-08-05T04:02:38.646Z,21.14
2022-08-05T04:05:34.666Z,21.11
2022-08-05T04:08:30.220Z,21.14
2022-08-05T04:11:04.544Z,21.10
2022-08-05T04:13:53.334Z,21.12
2022-08-05T04:16:24.959Z,21.04
2022-08-05T04:19:12.706Z,21.20
2022-08-05T04:22:09.882Z,21.34
2022-08-05T04:24:52.936Z,21.52
2022-08-05T04:27:41.721Z,21.50
2022-08-05T04:30:26.534Z,21.49
2022-08-05T04:32:53.915Z,21.42
2022-08-05T04:35:21.021Z,21.33
2022-08-05T04:38:02.555Z,21.29
2022-08-05T04:40:43.732Z,21.27
2022-08-05T04:43:16.523Z,21.22
2022-08-05T04:46:04.024Z,21.15
2022-08-05T04:48:32.443Z,21.15
2022-08-05T04:51:18.049Z,21.14
2022-08-05T04:53:45.231Z,21.07
2022-08-05T04:56:34.913Z,21.12
2022-08-05T04:59:23.996Z,21.13
2022-08-05T05:02:35.135Z,21.19
2022-08-05T05:04:38.167Z,21.15
2022-08-05T05:07:09.397Z,21.12
2022-08-05T05:09:39.673Z,20.93
2022-08-05T05:12:27.437Z,21.06
2022-08-05T05:14:54.986Z,21.04
2022-08-05T05:17:56.949Z,21.06
2022-08-05T05:20:28.414Z,21.08
2022-08-05T05:23:08.163Z,21.18
2022-08-05T05:25:40.746Z,21.26
2022-08-05T05:28:10.048Z,21.29
2022-08-05T05:30:38.433Z,21.19
2022-08-05T05:33:17.292Z,21.33
2022-08-05T05:35:46.653Z,21.28
2022-08-05T05:38:14.431Z,21.20
2022-08-05T05:40:49.821Z,21.25
2022-08-05T05:43:57.319Z,21.35
2022-08-05T05:46:31.824Z,21.38
2022-08-05T05:49:06.498Z,21.38
2022-08-05T05:51:50.757Z,21.42
2022-08-05T05:54:20.862Z,21.49
2022-08-05T05:56:48.288Z,21.43
2022-08-05T05:59:15.770Z,21.49
2022-08-05T06:01:57.350Z,21.50
2022-08-05T06:04:25.399Z,21.55
2022-08-05T06:06:52.769Z,21.54
2022-08-05T06:09:24.657Z,21.59
2022-08-05T06:12:01.783Z,21.61
2022-08-05T06:14:40.124Z,21.67
2022-08-05T06:17:24.319Z,21.80
2022-08-05T06:19:56.807Z,21.84
2022-08-05T06:22:29.627Z,21.88
2022-08-05T06:25:59.223Z,21.72
2022-08-05T06:28:11.408Z,21.57
2022-08-05T06:30:39.161Z,21.56
2022-08-05T06:33:09.884Z,21.53
2022-08-05T06:36:07.428Z,21.47
2022-08-05T06:38:36.417Z,21.53
2022-08-05T06:41:08.007Z,21.46
2022-08-05T06:43:58.799Z,21.50
2022-08-05T06:46:29.706Z,21.46
2022-08-05T06:49:15.730Z,21.57
2022-08-05T06:51:47.496Z,21.62
2022-08-05T06:54:33.085Z,21.59
2022-08-05T06:57:56.624Z,21.63
2022-08-05T07:00:09.647Z,21.48
2022-08-05T07:02:47.518Z,21.44
2022-08-05T07:05:23.431Z,21.32
2022-08-05T07:07:59.069Z,21.39
2022-08-05T07:10:30.475Z,21.49
2022-08-05T07:13:57.063Z,21.58
2022-08-05T07:17:56.618Z,21.67
2022-08-05T07:19:12.081Z,21.80
2022-08-05T07:22:00.025Z,21.72
2022-08-05T07:24:30.674Z,21.82
2022-08-05T07:27:17.052Z,21.67
2022-08-05T07:30:23.975Z,21.58
2022-08-05T07:32:53.292Z,21.52
2022-08-05T07:36:04.134Z,21.52
2022-08-05T07:38:34.006Z,21.43
2022-08-05T07:42:08.921Z,21.39
2022-08-05T07:44:18.701Z,21.40
2022-08-05T07:46:49.803Z,21.39
2022-08-05T07:49:43.643Z,21.23
2022-08-05T07:52:23.945Z,21.27
2022-08-05T07:54:53.381Z,21.32
2022-08-05T07:57:42.133Z,21.30
2022-08-05T08:00:11.349Z,21.24
2022-08-05T08:03:13.265Z,21.22
2022-08-05T08:05:28.867Z,21.26
2022-08-05T08:07:59.523Z,21.28
2022-08-05T08:10:48.612Z,21.14
2022-08-05T08:13:28.951Z,21.08
2022-08-05T08:16:35.915Z,21.10
2022-08-05T08:19:02.047Z,21.09
2022-08-05T08:21:29.191Z,21.10
2022-08-05T08:24:01.379Z,21.13
2022-08-05T08:26:32.483Z,21.15
2022-08-05T08:29:02.334Z,21.09
2022-08-05T08:31:52.086Z,21.09
2022-08-05T08:34:30.158Z,21.12
2022-08-05T08:37:18.879Z,21.13
2022-08-05T08:39:49.520Z,21.07
2022-08-05T08:42:50.999Z,20.98
2022-08-05T08:45:27.068Z,20.98
2022-08-05T08:48:12.528Z,21.04
2022-08-05T08:51:22.770Z,20.98
2022-08-05T08:53:45.284Z,20.85
2022-08-05T08:56:12.593Z,20.78
2022-08-05T08:58:44.439Z,20.86
2022-08-05T09:01:17.023Z,20.90
2022-08-05T09:03:55.233Z,20.88
2022-08-05T09:06:41.598Z,20.83
2022-08-05T09:09:08.897Z,20.82
2022-08-05T09:12:00.173Z,20.80
2022-08-05T09:14:58.275Z,20.85
2022-08-05T09:17:45.664Z,20.76
2022-08-05T09:20:36.686Z,20.69
2022-08-05T09:23:22.217Z,20.72
2022-08-05T09:26:00.337Z,20.77
2022-08-05T09:28:33.179Z,20.95
2022-08-05T09:31:23.483Z,20.78
2022-08-05T09:34:03.237Z,20.75
2022-08-05T09:36:54.067Z,20.75
2022-08-05T09:39:24.478Z,20.82
2022-08-05T09:42:17.196Z,20.58
2022-08-05T09:46:04.682Z,20.46
2022-08-05T09:47:56.529Z,20.55
2022-08-05T09:50:43.966Z,20.67
2022-08-05T09:53:22.662Z,20.62
2022-08-05T09:56:12.903Z,20.83
2022-08-05T09:58:41.959Z,20.94
2022-08-05T10:01:32.372Z,20.83
2022-08-05T10:04:10.328Z,20.64
2022-08-05T10:06:49.776Z,20.65
2022-08-05T10:09:45.297Z,20.44
2022-08-05T10:12:18.478Z,20.52
2022-08-05T10:15:25.973Z,20.50
2022-08-05T10:18:11.149Z,20.68
2022-08-05T10:20:44.057Z,20.71
2022-08-05T10:23:22.112Z,20.57
2022-08-05T10:26:13.803Z,20.37
2022-08-05T10:28:58.466Z,20.44
2022-08-05T10:33:01.020Z,20.45
2022-08-05T10:34:40.900Z,20.26
2022-08-05T10:37:08.488Z,20.51
2022-08-05T10:40:16.704Z,20.79
2022-08-05T10:42:51.654Z,21.10
2022-08-05T10:45:40.131Z,20.70
2022-08-05T10:48:29.621Z,20.87
2022-08-05T10:51:22.275Z,21.01
2022-08-05T10:53:54.476Z,21.06
2022-08-05T10:56:25.886Z,20.78
2022-08-05T10:58:53.326Z,20.74
2022-08-05T11:01:54.675Z,20.95
2022-08-05T11:04:26.087Z,20.98
2022-08-05T11:07:11.905Z,20.82
2022-08-05T11:09:46.883Z,21.05
2022-08-05T11:12:41.202Z,21.05
2022-08-05T11:15:58.945Z,21.05
2022-08-05T11:18:34.628Z,21.20
2022-08-05T11:21:11.691Z,21.48
2022-08-05T11:24:04.649Z,21.63
2022-08-05T11:26:49.406Z,21.82
2022-08-05T11:29:42.834Z,21.76
2022-08-05T11:32:30.051Z,21.94
2022-08-05T11:36:07.521Z,22.00
2022-08-05T11:38:45.476Z,21.53
2022-08-05T11:42:01.358Z,21.44
2022-08-05T11:44:52.829Z,21.24
2022-08-05T11:47:49.582Z,21.29
2022-08-05T11:50:17.636Z,21.57
2022-08-05T11:53:06.398Z,21.80
2022-08-05T11:55:37.420Z,22.12
2022-08-05T11:58:09.240Z,22.39
2022-08-05T12:00:41.289Z,22.59
2022-08-05T12:03:28.625Z,22.10
2022-08-05T12:06:06.390Z,22.12
2022-08-05T12:08:51.276Z,21.92
2022-08-05T12:11:40.486Z,21.77
2022-08-05T12:14:21.478Z,21.83
2022-08-05T12:16:54.191Z,22.22
2022-08-05T12:20:16.782Z,22.55
2022-08-05T12:22:32.742Z,22.99
2022-08-05T12:25:18.374Z,23.01
2022-08-05T12:27:52.952Z,22.79
2022-08-05T12:30:38.933Z,22.83
2022-08-05T12:33:27.023Z,22.74
2022-08-05T12:35:56.246Z,22.57
2022-08-05T12:38:23.748Z,22.67
2022-08-05T12:40:59.407Z,22.58
2022-08-05T12:43:26.709Z,22.58
2022-08-05T12:46:29.801Z,22.60
2022-08-05T12:49:25.480Z,22.95
2022-08-05T12:52:23.911Z,23.45
2022-08-05T12:54:55.619Z,23.59
2022-08-05T12:58:50.751Z,23.46
2022-08-05T13:02:03.461Z,23.17
2022-08-05T13:03:42.526Z,23.38
2022-08-05T13:06:15.999Z,23.46
2022-08-05T13:09:07.585Z,23.57
2022-08-05T13:12:01.313Z,24.19
2022-08-05T13:15:05.066Z,23.81
2022-08-05T13:17:41.358Z,23.95
2022-08-05T13:20:35.298Z,23.84
2022-08-05T13:23:16.214Z,23.92
2022-08-05T13:25:52.120Z,24.10
2022-08-05T13:28:27.772Z,24.10
2022-08-05T13:30:58.590Z,24.29
2022-08-05T13:34:22.321Z,24.25
2022-08-05T13:36:23.286Z,24.33
2022-08-05T13:38:54.436Z,24.54
2022-08-05T13:41:40.122Z,24.80
2022-08-05T13:44:07.857Z,24.73
2022-08-05T13:47:01.977Z,25.14
2022-08-05T13:49:32.175Z,24.87
2022-08-05T13:52:29.056Z,25.27
2022-08-05T13:54:57.477Z,25.45
2022-08-05T13:57:51.463Z,25.83
2022-08-05T14:00:26.942Z,25.69
2022-08-05T14:02:56.650Z,25.26
2022-08-05T14:05:47.929Z,24.82
2022-08-05T14:08:32.620Z,24.62
2022-08-05T14:11:18.042Z,24.36
2022-08-05T14:14:05.892Z,24.04
2022-08-05T14:16:33.225Z,24.22
2022-08-05T14:19:19.626Z,24.24
2022-08-05T14:22:09.688Z,24.66
2022-08-05T14:24:55.669Z,24.66
2022-08-05T14:27:22.876Z,24.39
2022-08-05T14:29:51.423Z,24.07
2022-08-05T14:32:27.025Z,24.08
2022-08-05T14:34:57.028Z,24.03
2022-08-05T14:37:42.157Z,23.83
2022-08-05T14:40:31.012Z,23.73
2022-08-05T14:42:58.314Z,23.72
2022-08-05T14:45:26.266Z,23.65
2022-08-05T14:48:02.613Z,23.80
2022-08-05T14:50:32.143Z,24.18
2022-08-05T14:53:00.190Z,24.29
2022-08-05T14:55:39.306Z,24.42
2022-08-05T14:58:19.184Z,24.33
2022-08-05T15:00:59.182Z,24.27
2022-08-05T15:03:45.568Z,24.06
2022-08-05T15:06:16.429Z,23.91
2022-08-05T15:09:03.828Z,23.97
2022-08-05T15:11:51.651Z,24.35
2022-08-05T15:14:48.164Z,24.55
2022-08-05T15:17:45.657Z,24.36
2022-08-05T15:20:19.008Z,24.14
2022-08-05T15:22:54.144Z,24.12
2022-08-05T15:25:50.911Z,24.18
2022-08-05T15:28:15.528Z,24.23
2022-08-05T15:30:45.885Z,24.29
2022-08-05T15:34:04.282Z,24.05
2022-08-05T15:36:24.641Z,24.10
2022-08-05T15:40:41.800Z,24.29
2022-08-05T15:41:59.596Z,24.07
2022-08-05T15:44:28.159Z,24.16
2022-08-05T15:47:16.046Z,24.08
2022-08-05T15:49:56.836Z,24.19
2022-08-05T15:52:54.141Z,24.21
2022-08-05T15:55:24.686Z,24.26
2022-08-05T15:57:52.432Z,24.45
2022-08-05T16:00:32.712Z,24.77
2022-08-05T16:03:10.693Z,24.84
2022-08-05T16:05:38.950Z,24.69
2022-08-05T16:08:24.870Z,24.59
2022-08-05T16:10:58.745Z,24.37
2022-08-05T16:13:45.461Z,24.24
2022-08-05T16:16:13.946Z,24.19
2022-08-05T16:19:07.403Z,24.11
2022-08-05T16:21:58.545Z,24.12
2022-08-05T16:24:51.153Z,24.09
2022-08-05T16:27:46.897Z,24.15
2022-08-05T16:30:25.827Z,24.06
2022-08-05T16:32:54.580Z,23.95
2022-08-05T16:35:27.748Z,23.67
2022-08-05T16:38:01.915Z,23.65
2022-08-05T16:40:48.044Z,23.73
2022-08-05T16:43:23.477Z,23.62
2022-08-05T16:46:23.436Z,23.39
2022-08-05T16:48:52.198Z,23.17
2022-08-05T16:51:20.696Z,23.15
2022-08-05T16:54:05.896Z,23.29
2022-08-05T16:56:41.743Z,23.28
2022-08-05T16:59:10.075Z,23.21
2022-08-05T17:01:54.151Z,23.40
2022-08-05T17:04:26.645Z,23.48
2022-08-05T17:06:55.785Z,23.46
2022-08-05T17:09:58.277Z,23.48
2022-08-05T17:12:51.340Z,23.55
2022-08-05T17:15:49.114Z,23.45
2022-08-05T17:18:19.441Z,23.35
2022-08-05T17:21:06.246Z,23.30
2022-08-05T17:24:03.691Z,23.36
2022-08-05T17:26:39.060Z,23.17
2022-08-05T17:29:13.934Z,23.12
2022-08-05T17:31:59.713Z,23.09
2022-08-05T17:34:30.084Z,23.07
2022-08-05T17:37:04.687Z,23.09
2022-08-05T17:39:51.236Z,22.99
2022-08-05T17:42:28.928Z,22.97
2022-08-05T17:44:57.532Z,22.96
2022-08-05T17:47:43.359Z,22.97
2022-08-05T17:50:11.518Z,22.98
2022-08-05T17:53:02.326Z,22.97
2022-08-05T17:55:37.932Z,22.97
2022-08-05T17:58:09.855Z,22.95
2022-08-05T18:00:47.034Z,23.00
2022-08-05T18:03:55.953Z,22.98
2022-08-05T18:06:12.151Z,22.96
2022-08-05T18:08:52.450Z,23.01
2022-08-05T18:11:23.752Z,22.95
2022-08-05T18:14:20.559Z,22.90
2022-08-05T18:16:54.270Z,22.94
2022-08-05T18:19:40.609Z,22.79
2022-08-05T18:22:18.043Z,22.83
2022-08-05T18:25:04.494Z,22.82
2022-08-05T18:27:31.553Z,22.83
2022-08-05T18:29:59.452Z,22.89
2022-08-05T18:32:27.989Z,22.86
2022-08-05T18:34:59.635Z,22.77
2022-08-05T18:37:34.321Z,22.65
2022-08-05T18:40:34.275Z,22.46
2022-08-05T18:43:16.386Z,22.30
2022-08-05T18:46:03.394Z,22.24
2022-08-05T18:48:33.103Z,22.20
2022-08-05T18:52:05.933Z,22.18
2022-08-05T18:54:31.231Z,22.14
2022-08-05T18:57:19.561Z,22.05
2022-08-05T19:00:01.866Z,21.98
2022-08-05T19:02:49.295Z,21.98
2022-08-05T19:06:12.567Z,21.93
2022-08-05T19:08:12.287Z,21.85
2022-08-05T19:10:42.521Z,21.79
2022-08-05T19:13:12.457Z,21.72
2022-08-05T19:15:59.347Z,21.72
2022-08-05T19:18:48.870Z,21.64
2022-08-05T19:21:17.220Z,21.60
2022-08-05T19:24:12.210Z,21.43
2022-08-05T19:26:43.894Z,21.43
2022-08-05T19:29:41.305Z,21.46
2022-08-05T19:32:11.403Z,21.34
2022-08-05T19:34:39.106Z,21.34
2022-08-05T19:37:06.919Z,21.37
2022-08-05T19:39:45.859Z,21.24
2022-08-05T19:42:35.424Z,21.13
2022-08-05T19:45:20.088Z,21.19
2022-08-05T19:47:55.735Z,21.06
2022-08-05T19:50:41.693Z,21.03
2022-08-05T19:53:09.372Z,20.99
2022-08-05T19:56:15.203Z,21.01
2022-08-05T19:58:54.208Z,20.86
2022-08-05T20:01:39.737Z,20.81
2022-08-05T20:04:07.377Z,20.90
2022-08-05T20:06:46.486Z,20.92
2022-08-05T20:09:14.588Z,20.86
2022-08-05T20:11:48.028Z,20.93
2022-08-05T20:14:23.227Z,20.84
2022-08-05T20:17:13.093Z,20.77
2022-08-05T20:19:50.899Z,20.77
2022-08-05T20:22:42.134Z,20.70
2022-08-05T20:25:13.868Z,20.65
2022-08-05T20:27:59.313Z,20.70
2022-08-05T20:30:27.522Z,20.56
2022-08-05T20:32:54.797Z,20.53
2022-08-05T20:35:21.912Z,20.36
2022-08-05T20:38:07.714Z,20.36
2022-08-05T20:40:55.394Z,20.40
2022-08-05T20:43:57.447Z,20.34
2022-08-05T20:46:33.463Z,20.27
2022-08-05T20:49:00.697Z,20.43
2022-08-05T20:51:53.500Z,20.36
2022-08-05T20:54:25.749Z,20.36
2022-08-05T20:57:43.543Z,20.26
2022-08-05T21:00:41.176Z,20.28
2022-08-05T21:03:20.531Z,20.33
2022-08-05T21:05:54.670Z,20.33
2022-08-05T21:08:28.200Z,20.24
2022-08-05T21:11:12.600Z,19.99
2022-08-05T21:13:55.580Z,20.01
2022-08-05T21:16:29.391Z,20.08
2022-08-05T21:19:00.370Z,19.85
2022-08-05T21:21:39.619Z,19.87
2022-08-05T21:24:30.262Z,19.86
2022-08-05T21:26:59.757Z,19.83
2022-08-05T21:29:48.265Z,19.72
2022-08-05T21:32:19.819Z,19.66
2022-08-05T21:35:17.629Z,19.73
2022-08-05T21:37:47.156Z,19.59
2022-08-05T21:40:14.806Z,19.55
2022-08-05T21:42:45.229Z,19.47
2022-08-05T21:45:24.718Z,19.40
2022-08-05T21:47:56.874Z,19.32
2022-08-05T21:50:54.095Z,19.28
2022-08-05T21:53:24.837Z,19.30
2022-08-05T21:56:17.167Z,19.30
2022-08-05T21:58:56.884Z,19.35
2022-08-05T22:01:43.521Z,19.21
2022-08-05T22:04:15.177Z,19.20
2022-08-05T22:06:42.478Z,19.11
2022-08-05T22:09:20.764Z,19.02
2022-08-05T22:11:51.974Z,19.04
2022-08-05T22:14:35.140Z,18.95
2022-08-05T22:17:23.134Z,18.87
2022-08-05T22:19:57.266Z,18.75
2022-08-05T22:23:16.538Z,18.74
2022-08-05T22:26:09.684Z,18.74
2022-08-05T22:28:56.133Z,18.69
2022-08-05T22:31:24.318Z,18.64
2022-08-05T22:34:25.581Z,18.58
2022-08-05T22:36:58.416Z,18.55
2022-08-05T22:39:44.106Z,18.55
2022-08-05T22:42:26.047Z,18.56
2022-08-05T22:45:12.340Z,18.57
2022-08-05T22:47:40.433Z,18.56
2022-08-05T22:50:26.808Z,18.52
2022-08-05T22:52:55.317Z,18.49
2022-08-05T22:55:57.306Z,18.49
2022-08-05T22:58:30.453Z,18.40
2022-08-05T23:01:18.552Z,18.35
2022-08-05T23:03:57.809Z,18.36
2022-08-05T23:06:45.516Z,18.32
2022-08-05T23:09:27.213Z,18.27
2022-08-05T23:12:23.818Z,18.30
2022-08-05T23:14:53.478Z,18.19
2022-08-05T23:17:24.542Z,18.22
2022-08-05T23:20:10.414Z,18.17
2022-08-05T23:22:47.644Z,18.14
2022-08-05T23:25:51.956Z,18.11
2022-08-05T23:28:07.540Z,18.08
2022-08-05T23:30:40.017Z,18.03
2022-08-05T23:34:02.857Z,18.06
2022-08-05T23:36:15.737Z,17.97
2022-08-05T23:39:01.771Z,18.00
2022-08-05T23:41:29.208Z,17.95
2022-08-05T23:44:05.320Z,17.86
2022-08-05T23:46:33.853Z,17.85
2022-08-05T23:49:16.739Z,17.87
2022-08-05T23:52:14.054Z,17.80
2022-08-05T23:54:50.914Z,17.73
2022-08-05T23:57:24.248Z,17.69
